createdAt,value
2019-03-21T00:00:41.276Z,4.30
2019-03-21T00:03:10.650Z,4.30
2019-03-21T00:05:39.999Z,4.30
2019-03-21T00:08:10.643Z,4.20
2019-03-21T00:11:23.702Z,4.20
2019-03-21T00:13:54.454Z,4.20
2019-03-21T00:16:23.838Z,4.20
2019-03-21T00:18:53.418Z,4.10
2019-03-21T00:21:24.926Z,4.10
2019-03-21T00:23:54.525Z,4.10
2019-03-21T00:26:24.554Z,4.10
2019-03-21T00:28:54.130Z,4.00
2019-03-21T00:31:23.796Z,3.90
2019-03-21T00:33:53.333Z,3.90
2019-03-21T00:36:24.391Z,3.90
2019-03-21T00:38:53.976Z,3.90
2019-03-21T00:41:23.354Z,3.90
2019-03-21T00:43:52.679Z,3.90
2019-03-21T00:46:22.047Z,3.90
2019-03-21T00:48:51.716Z,3.80
2019-03-21T00:51:30.248Z,3.90
2019-03-21T00:54:01.672Z,3.90
2019-03-21T00:56:31.297Z,3.80
2019-03-21T00:59:00.648Z,3.80
2019-03-21T01:01:30.220Z,3.80
2019-03-21T01:03:59.677Z,3.80
2019-03-21T01:06:30.093Z,3.80
2019-03-21T01:08:59.585Z,3.70
2019-03-21T01:11:29.157Z,3.70
2019-03-21T01:13:58.839Z,3.70
2019-03-21T01:16:28.163Z,3.70
2019-03-21T01:18:57.855Z,3.70
2019-03-21T01:21:28.223Z,3.60
2019-03-21T01:23:57.617Z,3.60
2019-03-21T01:26:27.495Z,3.60
2019-03-21T01:28:57.061Z,3.50
2019-03-21T01:31:26.717Z,3.50
2019-03-21T01:33:56.904Z,3.50
2019-03-21T01:36:26.568Z,3.50
2019-03-21T01:38:55.884Z,3.50
2019-03-21T01:41:25.562Z,3.50
2019-03-21T01:43:54.913Z,3.50
2019-03-21T01:46:24.388Z,3.50
2019-03-21T01:48:53.703Z,3.40
2019-03-21T01:51:23.134Z,3.40
2019-03-21T01:53:53.044Z,3.40
2019-03-21T01:58:59.185Z,3.40
2019-03-21T02:01:28.560Z,3.30
2019-03-21T02:03:57.899Z,3.30
2019-03-21T02:06:31.724Z,3.30
2019-03-21T02:09:01.072Z,3.20
2019-03-21T02:11:31.070Z,3.20
2019-03-21T02:14:00.396Z,3.20
2019-03-21T02:16:30.127Z,3.20
2019-03-21T02:19:00.525Z,3.20
2019-03-21T02:21:29.984Z,3.20
2019-03-21T02:23:59.305Z,3.20
2019-03-21T02:26:29.489Z,3.10
2019-03-21T02:28:58.811Z,3.10
2019-03-21T02:31:28.262Z,3.10
2019-03-21T02:33:57.833Z,3.10
2019-03-21T02:36:29.588Z,3.10
2019-03-21T02:38:58.915Z,3.10
2019-03-21T02:41:28.280Z,3.10
2019-03-21T02:43:57.948Z,3.10
2019-03-21T02:46:27.519Z,3.10
2019-03-21T02:48:57.186Z,3.10
2019-03-21T02:51:26.763Z,3.10
2019-03-21T02:53:56.302Z,3.10
2019-03-21T02:56:26.095Z,3.00
2019-03-21T02:58:56.207Z,3.00
2019-03-21T03:01:25.588Z,3.00
2019-03-21T03:03:55.223Z,2.90
2019-03-21T03:06:24.619Z,2.90
2019-03-21T03:08:54.136Z,2.90
2019-03-21T03:11:30.692Z,2.90
2019-03-21T03:14:00.155Z,2.90
2019-03-21T03:16:29.569Z,2.90
2019-03-21T03:18:58.948Z,2.90
2019-03-21T03:21:28.367Z,2.90
2019-03-21T03:23:57.934Z,2.90
2019-03-21T03:26:27.865Z,2.80
2019-03-21T03:28:57.202Z,2.80
2019-03-21T03:31:26.697Z,2.80
2019-03-21T03:33:56.312Z,2.80
2019-03-21T03:36:25.717Z,2.80
2019-03-21T03:38:55.668Z,2.80
2019-03-21T03:41:25.311Z,2.80
2019-03-21T03:43:56.309Z,2.70
2019-03-21T03:46:25.958Z,2.70
2019-03-21T03:48:55.561Z,2.60
2019-03-21T03:51:24.911Z,2.60
2019-03-21T03:53:54.504Z,2.60
2019-03-21T03:56:24.484Z,2.60
2019-03-21T03:58:54.895Z,2.50
2019-03-21T04:01:24.281Z,2.50
2019-03-21T04:03:54.156Z,2.50
2019-03-21T04:06:23.491Z,2.50
2019-03-21T04:08:53.029Z,2.50
2019-03-21T04:11:22.798Z,2.40
2019-03-21T04:13:52.130Z,2.50
2019-03-21T04:16:21.887Z,2.40
2019-03-21T04:18:51.700Z,2.40
2019-03-21T04:21:21.056Z,2.40
2019-03-21T04:23:50.466Z,2.40
2019-03-21T04:26:23.409Z,2.50
2019-03-21T04:28:53.115Z,2.50
2019-03-21T04:31:22.911Z,2.50
2019-03-21T04:33:54.135Z,2.50
2019-03-21T04:36:23.721Z,2.40
2019-03-21T04:38:53.298Z,2.40
2019-03-21T04:41:22.621Z,2.40
2019-03-21T04:43:55.893Z,2.40
2019-03-21T04:46:25.246Z,2.30
2019-03-21T04:48:54.996Z,2.30
2019-03-21T04:51:24.315Z,2.30
2019-03-21T04:53:55.115Z,2.20
2019-03-21T04:56:25.055Z,2.20
2019-03-21T04:58:54.430Z,2.20
2019-03-21T05:01:24.448Z,2.20
2019-03-21T05:03:54.103Z,2.20
2019-03-21T05:06:23.887Z,2.20
2019-03-21T05:08:53.794Z,2.20
2019-03-21T05:11:23.105Z,2.20
2019-03-21T05:17:22.064Z,2.20
2019-03-21T05:19:51.851Z,2.20
2019-03-21T05:22:22.404Z,2.20
2019-03-21T05:24:51.850Z,2.20
2019-03-21T05:27:21.316Z,2.20
2019-03-21T05:29:50.882Z,2.20
2019-03-21T05:32:20.221Z,2.20
2019-03-21T05:34:52.066Z,2.20
2019-03-21T05:37:21.931Z,2.20
2019-03-21T05:39:51.812Z,2.20
2019-03-21T05:42:23.176Z,2.20
2019-03-21T05:44:52.623Z,2.20
2019-03-21T05:47:22.339Z,2.20
2019-03-21T05:49:51.743Z,2.20
2019-03-21T05:52:21.396Z,2.20
2019-03-21T05:54:50.839Z,2.20
2019-03-21T05:57:20.527Z,2.20
2019-03-21T05:59:49.961Z,2.20
2019-03-21T06:02:20.045Z,2.20
2019-03-21T06:04:49.555Z,2.20
2019-03-21T06:07:42.235Z,2.30
2019-03-21T06:10:13.454Z,2.30
2019-03-21T06:12:46.450Z,2.30
2019-03-21T06:15:18.845Z,2.30
2019-03-21T06:17:59.441Z,2.30
2019-03-21T06:20:41.895Z,2.30
2019-03-21T06:23:44.099Z,2.30
2019-03-21T06:26:30.301Z,2.30
2019-03-21T06:29:00.126Z,2.40
2019-03-21T06:31:29.587Z,2.50
2019-03-21T06:33:59.285Z,2.50
2019-03-21T06:36:30.251Z,2.60
2019-03-21T06:38:59.696Z,2.60
2019-03-21T06:41:29.677Z,2.70
2019-03-21T06:43:59.382Z,2.70
2019-03-21T06:46:28.794Z,2.80
2019-03-21T06:48:58.252Z,2.80
2019-03-21T06:51:27.992Z,2.90
2019-03-21T06:53:57.839Z,3.00
2019-03-21T06:56:28.258Z,3.10
2019-03-21T06:58:58.044Z,3.10
2019-03-21T07:01:27.776Z,3.20
2019-03-21T07:04:06.565Z,3.30
2019-03-21T07:06:28.393Z,3.40
2019-03-21T07:08:58.954Z,3.50
2019-03-21T07:11:29.012Z,3.60
2019-03-21T07:13:58.725Z,3.70
2019-03-21T07:16:28.666Z,3.80
2019-03-21T07:18:58.380Z,3.90
2019-03-21T07:21:27.836Z,3.90
2019-03-21T07:23:57.623Z,4.00
2019-03-21T07:26:27.190Z,4.00
2019-03-21T07:28:57.103Z,4.10
2019-03-21T07:31:35.662Z,4.10
2019-03-21T07:34:05.533Z,4.20
2019-03-21T07:36:35.016Z,4.20
2019-03-21T07:39:07.249Z,4.30
2019-03-21T07:41:36.945Z,4.40
2019-03-21T07:44:06.378Z,4.50
2019-03-21T07:46:36.175Z,4.60
2019-03-21T07:49:05.914Z,4.70
2019-03-21T07:51:35.390Z,4.80
2019-03-21T07:54:05.076Z,4.90
2019-03-21T07:56:34.775Z,5.00
2019-03-21T07:59:04.206Z,5.20
2019-03-21T08:01:33.867Z,5.30
2019-03-21T08:04:03.730Z,5.50
2019-03-21T08:06:33.310Z,5.60
2019-03-21T08:09:03.208Z,5.70
2019-03-21T08:11:32.767Z,5.90
2019-03-21T08:14:02.286Z,6.00
2019-03-21T08:16:31.844Z,6.10
2019-03-21T08:19:01.654Z,6.30
2019-03-21T08:21:31.117Z,6.40
2019-03-21T08:24:00.809Z,6.50
2019-03-21T08:26:30.676Z,6.60
2019-03-21T08:29:00.172Z,6.80
2019-03-21T08:31:29.813Z,6.90
2019-03-21T08:33:59.599Z,7.00
2019-03-21T08:36:29.505Z,7.20
2019-03-21T08:38:59.155Z,7.30
2019-03-21T08:41:28.748Z,7.50
2019-03-21T08:43:59.220Z,7.60
2019-03-21T08:46:28.839Z,7.80
2019-03-21T08:48:58.569Z,7.90
2019-03-21T08:51:28.292Z,8.00
2019-03-21T08:53:57.835Z,8.20
2019-03-21T08:56:32.617Z,8.30
2019-03-21T08:59:02.224Z,8.40
2019-03-21T09:01:31.798Z,8.60
2019-03-21T09:04:01.342Z,8.70
2019-03-21T09:06:31.176Z,8.80
2019-03-21T09:09:08.981Z,8.90
2019-03-21T09:11:38.699Z,9.10
2019-03-21T09:14:08.162Z,9.20
2019-03-21T09:16:37.607Z,9.30
2019-03-21T09:19:07.399Z,9.50
2019-03-21T09:21:37.888Z,9.50
2019-03-21T09:24:07.404Z,9.60
2019-03-21T09:26:37.245Z,9.70
2019-03-21T09:29:13.995Z,9.80
2019-03-21T09:31:49.703Z,9.90
2019-03-21T09:34:19.181Z,10.00
2019-03-21T09:36:57.504Z,10.10
2019-03-21T09:39:27.425Z,10.20
2019-03-21T09:42:01.102Z,10.30
2019-03-21T09:44:30.717Z,10.40
2019-03-21T09:47:08.790Z,10.60
2019-03-21T09:49:41.441Z,10.70
2019-03-21T09:52:11.254Z,10.80
2019-03-21T09:54:40.935Z,10.90
2019-03-21T09:57:10.672Z,11.00
2019-03-21T09:59:41.502Z,11.20
2019-03-21T10:02:11.238Z,11.30
2019-03-21T10:04:40.713Z,11.40
2019-03-21T10:07:10.862Z,11.50
2019-03-21T10:09:42.650Z,11.60
2019-03-21T10:12:12.349Z,11.70
2019-03-21T10:14:42.538Z,11.80
2019-03-21T10:17:12.927Z,11.90
2019-03-21T10:19:50.786Z,12.00
2019-03-21T10:22:20.489Z,12.00
2019-03-21T10:24:50.498Z,12.10
2019-03-21T10:27:20.335Z,12.20
2019-03-21T10:29:54.447Z,12.20
2019-03-21T10:32:24.523Z,12.30
2019-03-21T10:34:54.053Z,12.40
2019-03-21T10:37:23.569Z,12.50
2019-03-21T10:39:53.340Z,12.60
2019-03-21T10:42:22.984Z,12.70
2019-03-21T10:44:52.950Z,12.90
2019-03-21T10:47:22.772Z,13.10
2019-03-21T10:49:52.656Z,13.20
2019-03-21T10:52:25.490Z,13.30
2019-03-21T10:54:55.378Z,13.40
2019-03-21T10:57:27.431Z,13.60
2019-03-21T11:00:03.675Z,13.60
2019-03-21T11:02:33.827Z,13.70
2019-03-21T11:05:17.444Z,13.80
2019-03-21T11:07:47.140Z,13.80
2019-03-21T11:10:16.903Z,13.90
2019-03-21T11:12:46.687Z,14.00
2019-03-21T11:15:16.755Z,14.10
2019-03-21T11:17:46.811Z,14.20
2019-03-21T11:20:32.233Z,14.30
2019-03-21T11:23:02.124Z,14.40
2019-03-21T11:25:32.220Z,14.50
2019-03-21T11:28:02.353Z,14.60
2019-03-21T11:30:34.069Z,14.80
2019-03-21T11:33:04.693Z,14.90
2019-03-21T11:35:35.840Z,15.00
2019-03-21T11:38:06.644Z,15.10
2019-03-21T11:40:36.651Z,15.20
2019-03-21T11:43:08.767Z,15.30
2019-03-21T11:45:38.888Z,15.40
2019-03-21T11:48:08.952Z,15.40
2019-03-21T11:50:39.272Z,15.50
2019-03-21T11:53:12.335Z,15.50
2019-03-21T11:55:42.087Z,15.60
2019-03-21T11:58:11.626Z,15.70
2019-03-21T12:00:49.338Z,15.70
2019-03-21T12:03:18.981Z,15.80
2019-03-21T12:05:48.894Z,15.80
2019-03-21T12:08:18.714Z,15.90
2019-03-21T12:10:54.474Z,16.00
2019-03-21T12:13:25.076Z,16.00
2019-03-21T12:15:54.679Z,16.10
2019-03-21T12:18:24.108Z,16.20
2019-03-21T12:20:54.023Z,16.30
2019-03-21T12:23:23.694Z,16.30
2019-03-21T12:25:54.729Z,16.30
2019-03-21T12:28:24.209Z,16.40
2019-03-21T12:30:53.867Z,16.40
2019-03-21T12:33:23.548Z,16.40
2019-03-21T12:35:53.234Z,16.50
2019-03-21T12:38:23.159Z,16.50
2019-03-21T12:40:53.197Z,16.50
2019-03-21T12:43:22.814Z,16.50
2019-03-21T12:45:53.084Z,16.60
2019-03-21T12:48:23.774Z,16.60
2019-03-21T12:50:53.409Z,16.60
2019-03-21T12:53:23.205Z,16.60
2019-03-21T12:55:53.367Z,16.70
2019-03-21T12:58:25.389Z,16.70
2019-03-21T13:00:56.449Z,16.80
2019-03-21T13:03:26.078Z,16.80
2019-03-21T13:05:55.725Z,16.80
2019-03-21T13:08:33.826Z,16.90
2019-03-21T13:10:57.071Z,16.90
2019-03-21T13:13:26.905Z,16.90
2019-03-21T13:15:56.546Z,16.90
2019-03-21T13:18:26.483Z,16.90
2019-03-21T13:20:56.128Z,16.90
2019-03-21T13:23:25.567Z,16.90
2019-03-21T13:28:26.371Z,16.90
2019-03-21T13:30:56.520Z,17.00
2019-03-21T13:33:26.566Z,17.00
2019-03-21T13:35:56.347Z,17.10
2019-03-21T13:38:26.056Z,17.10
2019-03-21T13:40:56.223Z,17.20
2019-03-21T13:43:25.910Z,17.20
2019-03-21T13:45:55.747Z,17.20
2019-03-21T13:48:25.565Z,17.20
2019-03-21T13:50:55.249Z,17.30
2019-03-21T13:53:25.267Z,17.20
2019-03-21T13:55:54.851Z,17.30
2019-03-21T13:58:24.557Z,17.30
2019-03-21T14:00:54.161Z,17.40
2019-03-21T14:03:25.393Z,17.40
2019-03-21T14:05:55.541Z,17.30
2019-03-21T14:08:25.076Z,17.30
2019-03-21T14:10:54.742Z,17.40
2019-03-21T14:13:30.455Z,17.50
2019-03-21T14:16:00.047Z,17.60
2019-03-21T14:18:29.739Z,17.60
2019-03-21T14:20:59.306Z,17.70
2019-03-21T14:23:42.458Z,17.70
2019-03-21T14:26:10.649Z,17.70
2019-03-21T14:28:46.577Z,17.70
2019-03-21T14:31:16.295Z,17.70
2019-03-21T14:33:45.941Z,17.80
2019-03-21T14:36:25.931Z,17.80
2019-03-21T14:38:58.405Z,17.80
2019-03-21T14:41:28.437Z,17.80
2019-03-21T14:43:58.511Z,17.80
2019-03-21T14:46:28.174Z,17.80
2019-03-21T14:48:59.328Z,17.80
2019-03-21T14:51:29.716Z,17.90
2019-03-21T14:53:59.577Z,18.00
2019-03-21T14:56:29.325Z,18.00
2019-03-21T14:58:59.094Z,18.10
2019-03-21T15:01:28.528Z,18.20
2019-03-21T15:03:58.593Z,18.20
2019-03-21T15:06:28.115Z,18.30
2019-03-21T15:08:59.919Z,18.30
2019-03-21T15:11:30.148Z,18.30
2019-03-21T15:13:59.792Z,18.30
2019-03-21T15:16:29.605Z,18.30
2019-03-21T15:18:59.615Z,18.20
2019-03-21T15:21:29.466Z,18.20
2019-03-21T15:23:59.983Z,18.20
2019-03-21T15:26:30.226Z,18.10
2019-03-21T15:28:59.991Z,17.90
2019-03-21T15:31:29.927Z,17.80
2019-03-21T15:34:23.732Z,17.70
2019-03-21T15:36:54.954Z,17.60
2019-03-21T15:39:28.606Z,17.40
2019-03-21T15:41:58.439Z,17.30
2019-03-21T15:44:30.551Z,17.20
2019-03-21T15:47:00.364Z,17.00
2019-03-21T15:49:30.142Z,16.70
2019-03-21T15:52:00.113Z,16.50
2019-03-21T15:54:35.891Z,16.40
2019-03-21T15:57:05.949Z,16.30
2019-03-21T15:59:35.626Z,16.30
2019-03-21T16:02:05.862Z,16.20
2019-03-21T16:04:49.287Z,16.20
2019-03-21T16:07:18.972Z,16.10
2019-03-21T16:09:48.414Z,16.10
2019-03-21T16:12:18.535Z,16.10
2019-03-21T16:14:49.295Z,15.90
2019-03-21T16:17:20.122Z,15.80
2019-03-21T16:19:49.972Z,15.80
2019-03-21T16:22:19.436Z,15.70
2019-03-21T16:24:49.482Z,15.70
2019-03-21T16:27:19.629Z,15.60
2019-03-21T16:29:49.839Z,15.50
2019-03-21T16:32:40.226Z,15.50
2019-03-21T16:35:16.059Z,15.40
2019-03-21T16:37:49.956Z,15.40
2019-03-21T16:40:19.458Z,15.30
2019-03-21T16:42:49.261Z,15.30
2019-03-21T16:45:21.303Z,15.20
2019-03-21T16:47:50.526Z,15.10
2019-03-21T16:50:20.549Z,15.10
2019-03-21T16:52:51.275Z,15.00
2019-03-21T16:55:21.355Z,14.90
2019-03-21T16:57:51.052Z,14.80
2019-03-21T17:00:21.180Z,14.70
2019-03-21T17:02:51.124Z,14.60
2019-03-21T17:05:22.331Z,14.60
2019-03-21T17:07:52.443Z,14.50
2019-03-21T17:10:22.322Z,14.50
2019-03-21T17:12:52.247Z,14.40
2019-03-21T17:15:21.883Z,14.40
2019-03-21T17:17:51.877Z,14.30
2019-03-21T17:20:31.081Z,14.30
2019-03-21T17:23:00.873Z,14.20
2019-03-21T17:25:31.532Z,14.10
2019-03-21T17:28:04.082Z,14.00
2019-03-21T17:30:33.809Z,13.90
2019-03-21T17:33:12.845Z,13.80
2019-03-21T17:35:42.479Z,13.80
2019-03-21T17:38:12.283Z,13.70
2019-03-21T17:40:41.722Z,13.70
2019-03-21T17:43:11.138Z,13.60
2019-03-21T17:45:52.998Z,13.50
2019-03-21T17:48:22.566Z,13.40
2019-03-21T17:50:56.408Z,13.30
2019-03-21T17:53:26.474Z,13.30
2019-03-21T17:55:56.425Z,13.30
2019-03-21T17:58:28.946Z,13.20
2019-03-21T18:00:58.815Z,13.20
2019-03-21T18:03:36.696Z,13.10
2019-03-21T18:06:06.423Z,13.00
2019-03-21T18:08:36.199Z,13.00
2019-03-21T18:11:05.790Z,12.90
2019-03-21T18:13:53.815Z,12.90
2019-03-21T18:16:23.310Z,12.80
2019-03-21T18:18:52.895Z,12.70
2019-03-21T18:21:22.342Z,12.70
2019-03-21T18:23:52.396Z,12.60
2019-03-21T18:26:21.945Z,12.60
2019-03-21T18:28:51.442Z,12.50
2019-03-21T18:31:21.286Z,12.40
2019-03-21T18:34:03.146Z,12.30
2019-03-21T18:36:32.735Z,12.20
2019-03-21T18:39:02.466Z,12.10
2019-03-21T18:41:32.115Z,12.00
2019-03-21T18:44:15.106Z,11.90
2019-03-21T18:46:44.459Z,11.90
2019-03-21T18:49:14.295Z,11.80
2019-03-21T18:51:43.722Z,11.70
2019-03-21T18:54:13.222Z,11.60
2019-03-21T18:56:42.714Z,11.60
2019-03-21T18:59:12.374Z,11.50
2019-03-21T19:01:42.006Z,11.40
2019-03-21T19:04:11.489Z,11.40
2019-03-21T19:06:41.318Z,11.30
2019-03-21T19:09:10.792Z,11.30
2019-03-21T19:11:40.255Z,11.20
2019-03-21T19:14:09.830Z,11.20
2019-03-21T19:16:39.647Z,11.20
2019-03-21T19:19:09.074Z,11.10
2019-03-21T19:21:38.866Z,11.00
2019-03-21T19:24:08.354Z,11.00
2019-03-21T19:26:37.966Z,10.90
2019-03-21T19:29:07.487Z,10.80
2019-03-21T19:31:37.222Z,10.70
2019-03-21T19:34:24.816Z,10.70
2019-03-21T19:36:54.330Z,10.60
2019-03-21T19:39:23.831Z,10.60
2019-03-21T19:41:53.257Z,10.50
2019-03-21T19:44:22.963Z,10.50
2019-03-21T19:46:52.772Z,10.40
2019-03-21T19:49:22.633Z,10.30
2019-03-21T19:51:53.261Z,10.30
2019-03-21T19:54:23.031Z,10.20
2019-03-21T19:56:52.652Z,10.20
2019-03-21T19:59:22.234Z,10.10
2019-03-21T20:01:52.699Z,10.10
2019-03-21T20:04:22.412Z,10.10
2019-03-21T20:06:51.914Z,10.00
2019-03-21T20:09:21.511Z,10.00
2019-03-21T20:11:51.004Z,9.90
2019-03-21T20:14:20.618Z,9.90
2019-03-21T20:16:50.133Z,9.80
2019-03-21T20:19:19.545Z,9.80
2019-03-21T20:21:49.056Z,9.70
2019-03-21T20:24:18.639Z,9.60
2019-03-21T20:26:48.226Z,9.60
2019-03-21T20:29:18.699Z,9.50
2019-03-21T20:31:48.285Z,9.50
2019-03-21T20:34:17.716Z,9.40
2019-03-21T20:36:47.319Z,9.30
2019-03-21T20:39:16.859Z,9.30
2019-03-21T20:41:46.332Z,9.20
2019-03-21T20:44:16.937Z,9.20
2019-03-21T20:46:46.471Z,9.20
2019-03-21T20:49:15.903Z,9.10
2019-03-21T20:51:47.712Z,9.10
2019-03-21T20:54:17.806Z,9.10
2019-03-21T20:56:47.300Z,9.00
2019-03-21T20:59:16.823Z,9.00
2019-03-21T21:01:46.597Z,8.90
2019-03-21T21:04:16.034Z,8.90
2019-03-21T21:06:45.489Z,8.90
2019-03-21T21:09:15.031Z,8.80
2019-03-21T21:11:44.512Z,8.80
2019-03-21T21:14:13.965Z,8.80
2019-03-21T21:16:43.334Z,8.80
2019-03-21T21:19:12.887Z,8.80
2019-03-21T21:22:07.937Z,8.70
2019-03-21T21:24:37.688Z,8.70
2019-03-21T21:27:07.225Z,8.60
2019-03-21T21:29:36.779Z,8.60
2019-03-21T21:32:06.286Z,8.50
2019-03-21T21:34:35.856Z,8.50
2019-03-21T21:37:06.659Z,8.40
2019-03-21T21:39:36.454Z,8.40
2019-03-21T21:42:06.272Z,8.30
2019-03-21T21:44:35.802Z,8.30
2019-03-21T21:47:11.781Z,8.30
2019-03-21T21:49:41.210Z,8.20
2019-03-21T21:52:11.363Z,8.20
2019-03-21T21:54:42.042Z,8.20
2019-03-21T21:57:11.843Z,8.20
2019-03-21T21:59:41.627Z,8.10
2019-03-21T22:02:14.206Z,8.10
2019-03-21T22:04:43.926Z,8.10
2019-03-21T22:07:13.661Z,8.10
2019-03-21T22:09:43.254Z,8.10
2019-03-21T22:12:12.975Z,8.10
2019-03-21T22:14:42.666Z,8.00
2019-03-21T22:17:12.161Z,8.00
2019-03-21T22:19:41.835Z,8.00
2019-03-21T22:22:11.471Z,8.00
2019-03-21T22:24:40.958Z,8.00
2019-03-21T22:27:10.526Z,8.00
2019-03-21T22:29:40.157Z,8.00
2019-03-21T22:32:10.974Z,8.00
2019-03-21T22:34:40.500Z,7.90
2019-03-21T22:37:09.986Z,7.90
2019-03-21T22:39:39.564Z,7.90
2019-03-21T22:42:09.283Z,7.80
2019-03-21T22:44:40.111Z,7.80
2019-03-21T22:47:09.575Z,7.80
2019-03-21T22:49:39.386Z,7.70
2019-03-21T22:52:08.878Z,7.70
2019-03-21T22:54:38.466Z,7.60
2019-03-21T22:57:08.027Z,7.60
2019-03-21T22:59:37.611Z,7.50
2019-03-21T23:02:09.439Z,7.50
2019-03-21T23:04:39.053Z,7.50
2019-03-21T23:07:08.630Z,7.50
2019-03-21T23:09:38.227Z,7.50
2019-03-21T23:12:08.006Z,7.40
2019-03-21T23:14:37.481Z,7.40
2019-03-21T23:17:07.214Z,7.40
2019-03-21T23:19:37.017Z,7.40
2019-03-21T23:22:06.533Z,7.40
2019-03-21T23:24:37.178Z,7.40
2019-03-21T23:27:06.804Z,7.40
2019-03-21T23:29:36.221Z,7.30
2019-03-21T23:32:05.780Z,7.30
2019-03-21T23:34:35.764Z,7.30
2019-03-21T23:37:06.333Z,7.20
2019-03-21T23:39:35.721Z,7.20
2019-03-21T23:42:05.337Z,7.10
2019-03-21T23:44:34.982Z,7.10
2019-03-21T23:47:04.503Z,7.10
2019-03-21T23:49:34.125Z,7.10
2019-03-21T23:52:04.066Z,7.00
2019-03-21T23:54:33.691Z,7.00
2019-03-21T23:57:04.776Z,7.00
2019-03-21T23:59:36.511Z,7.00
